createdAt,value
2018-08-02T00:01:08.550Z,9.33
2018-08-02T00:03:40.529Z,8.93
2018-08-02T00:06:12.569Z,9.50
2018-08-02T00:08:43.930Z,9.50
2018-08-02T00:11:15.929Z,9.50
2018-08-02T00:13:47.673Z,9.30
2018-08-02T00:16:19.776Z,8.83
2018-08-02T00:18:51.529Z,8.20
2018-08-02T00:21:23.909Z,8.73
2018-08-02T00:23:55.349Z,9.30
2018-08-02T00:26:27.149Z,8.67
2018-08-02T00:28:59.029Z,9.60
2018-08-02T00:31:30.889Z,8.60
2018-08-02T00:34:02.313Z,8.07
2018-08-02T00:36:34.289Z,7.90
2018-08-02T00:39:07.449Z,8.80
2018-08-02T00:41:39.629Z,7.80
2018-08-02T00:44:11.869Z,8.23
2018-08-02T00:46:43.342Z,7.43
2018-08-02T00:49:14.955Z,8.17
2018-08-02T00:51:47.030Z,8.33
2018-08-02T00:54:18.970Z,7.90
2018-08-02T00:56:50.889Z,7.50
2018-08-02T00:59:22.990Z,8.23
2018-08-02T01:01:54.569Z,8.07
2018-08-02T01:04:27.349Z,7.90
2018-08-02T01:06:59.833Z,7.47
2018-08-02T01:09:31.451Z,8.53
2018-08-02T01:12:03.170Z,8.10
2018-08-02T01:14:35.069Z,7.50
2018-08-02T01:17:07.815Z,8.40
2018-08-02T01:19:39.170Z,6.73
2018-08-02T01:22:10.529Z,7.53
2018-08-02T01:24:42.409Z,6.80
2018-08-02T01:27:14.030Z,6.73
2018-08-02T01:29:45.830Z,6.93
2018-08-02T01:32:17.555Z,7.00
2018-08-02T01:34:50.571Z,7.13
2018-08-02T01:37:21.590Z,6.67
2018-08-02T01:39:53.330Z,7.40
2018-08-02T01:42:24.850Z,7.03
2018-08-02T01:44:57.049Z,7.00
2018-08-02T01:47:28.849Z,7.03
2018-08-02T01:50:01.039Z,6.80
2018-08-02T01:52:32.610Z,6.60
2018-08-02T01:55:04.689Z,6.67
2018-08-02T01:57:36.469Z,7.30
2018-08-02T02:00:08.789Z,6.73
2018-08-02T02:02:40.329Z,6.97
2018-08-02T02:05:12.929Z,7.00
2018-08-02T02:07:44.589Z,6.83
2018-08-02T02:10:15.810Z,7.07
2018-08-02T02:12:47.469Z,7.07
2018-08-02T02:15:19.770Z,7.10
2018-08-02T02:17:51.549Z,7.67
2018-08-02T02:20:23.389Z,6.97
2018-08-02T02:22:55.192Z,6.80
2018-08-02T02:25:27.250Z,7.87
2018-08-02T02:27:58.569Z,7.43
2018-08-02T02:30:30.149Z,6.80
2018-08-02T02:33:01.774Z,6.87
2018-08-02T02:35:33.509Z,7.60
2018-08-02T02:38:05.089Z,6.83
2018-08-02T02:40:37.090Z,6.50
2018-08-02T02:43:09.129Z,6.80
2018-08-02T02:45:41.229Z,7.33
2018-08-02T02:48:12.670Z,6.10
2018-08-02T02:50:45.110Z,6.27
2018-08-02T02:53:16.635Z,6.57
2018-08-02T02:55:48.369Z,7.10
2018-08-02T02:58:19.752Z,6.77
2018-08-02T03:00:52.270Z,7.97
2018-08-02T03:03:23.629Z,8.20
2018-08-02T03:05:55.210Z,7.67
2018-08-02T03:08:26.570Z,7.23
2018-08-02T03:10:58.990Z,6.70
2018-08-02T03:13:31.310Z,6.67
2018-08-02T03:16:03.811Z,7.23
2018-08-02T03:18:35.890Z,6.67
2018-08-02T03:21:07.390Z,6.47
2018-08-02T03:23:39.549Z,6.03
2018-08-02T03:26:10.650Z,6.73
2018-08-02T03:28:42.953Z,6.50
2018-08-02T03:31:15.111Z,6.47
2018-08-02T03:33:47.290Z,6.60
2018-08-02T03:36:19.169Z,7.00
2018-08-02T03:38:51.230Z,6.83
2018-08-02T03:41:23.549Z,8.90
2018-08-02T03:43:55.390Z,6.37
2018-08-02T03:46:27.914Z,8.00
2018-08-02T03:48:59.650Z,8.00
2018-08-02T03:51:32.330Z,8.00
2018-08-02T03:54:03.336Z,8.40
2018-08-02T03:56:35.830Z,9.03
2018-08-02T03:59:07.449Z,9.40
2018-08-02T04:01:39.590Z,8.57
2018-08-02T04:04:11.773Z,9.13
2018-08-02T04:06:43.470Z,10.13
2018-08-02T04:09:15.850Z,9.40
2018-08-02T04:11:47.490Z,9.13
2018-08-02T04:14:19.129Z,8.60
2018-08-02T04:16:51.369Z,8.00
2018-08-02T04:19:23.449Z,8.00
2018-08-02T04:21:55.409Z,9.00
2018-08-02T04:24:27.589Z,9.23
2018-08-02T04:26:59.409Z,10.03
2018-08-02T04:29:31.549Z,9.60
2018-08-02T04:32:03.529Z,9.70
2018-08-02T04:34:36.489Z,9.40
2018-08-02T04:37:07.829Z,9.00
2018-08-02T04:39:40.809Z,8.87
2018-08-02T04:42:12.847Z,9.40
2018-08-02T04:44:44.410Z,9.00
2018-08-02T04:47:16.630Z,9.67
2018-08-02T04:49:48.569Z,8.23
2018-08-02T04:52:20.669Z,9.50
2018-08-02T04:54:53.169Z,7.93
2018-08-02T04:57:24.630Z,7.53
2018-08-02T04:59:56.730Z,7.60
2018-08-02T05:02:28.330Z,8.63
2018-08-02T05:05:00.649Z,8.80
2018-08-02T05:07:32.590Z,8.87
2018-08-02T05:10:04.862Z,8.00
2018-08-02T05:12:36.169Z,8.63
2018-08-02T05:15:08.370Z,10.17
2018-08-02T05:17:39.612Z,10.27
2018-08-02T05:20:11.850Z,10.60
2018-08-02T05:22:43.532Z,11.10
2018-08-02T05:25:16.110Z,9.80
2018-08-02T05:27:47.870Z,10.77
2018-08-02T05:30:20.149Z,10.43
2018-08-02T05:32:52.109Z,10.47
2018-08-02T05:35:23.959Z,9.60
2018-08-02T05:37:55.530Z,9.17
2018-08-02T05:40:27.450Z,10.20
2018-08-02T05:42:59.532Z,9.83
2018-08-02T05:45:31.289Z,10.07
2018-08-02T05:48:03.649Z,12.10
2018-08-02T05:50:35.509Z,10.80
2018-08-02T05:53:07.669Z,10.60
2018-08-02T05:55:39.349Z,13.60
2018-08-02T05:58:12.070Z,10.57
2018-08-02T06:00:44.870Z,12.40
2018-08-02T06:03:15.978Z,10.57
2018-08-02T06:05:47.649Z,12.77
2018-08-02T06:08:19.729Z,12.07
2018-08-02T06:10:52.269Z,10.13
2018-08-02T06:13:23.749Z,11.17
2018-08-02T06:15:55.869Z,10.90
2018-08-02T06:18:27.409Z,12.90
2018-08-02T06:20:59.512Z,10.47
2018-08-02T06:23:30.892Z,13.80
2018-08-02T06:26:02.389Z,10.40
2018-08-02T06:28:34.010Z,11.03
2018-08-02T06:31:05.510Z,10.60
2018-08-02T06:33:36.770Z,10.30
2018-08-02T06:36:08.789Z,9.97
2018-08-02T06:38:40.649Z,9.77
2018-08-02T06:41:13.449Z,8.70
2018-08-02T06:43:43.850Z,16.77
2018-08-02T06:46:18.234Z,10.00
2018-08-02T06:48:47.610Z,34.13
2018-08-02T06:51:18.930Z,9.07
2018-08-02T06:53:50.330Z,8.80
2018-08-02T06:56:21.902Z,9.10
2018-08-02T06:58:53.833Z,11.00
2018-08-02T07:01:25.750Z,9.73
2018-08-02T07:03:58.369Z,9.30
2018-08-02T07:06:30.618Z,9.27
2018-08-02T07:09:01.918Z,10.37
2018-08-02T07:11:34.177Z,9.13
2018-08-02T07:14:05.618Z,9.47
2018-08-02T07:16:37.881Z,10.63
2018-08-02T07:19:09.539Z,11.50
2018-08-02T07:21:41.658Z,10.63
2018-08-02T07:24:13.700Z,11.40
2018-08-02T07:26:45.778Z,14.40
2018-08-02T07:29:17.000Z,11.00
2018-08-02T07:31:48.319Z,9.87
2018-08-02T07:34:19.629Z,9.77
2018-08-02T07:36:51.940Z,10.37
2018-08-02T07:39:23.798Z,11.40
2018-08-02T07:41:55.298Z,10.50
2018-08-02T07:44:26.919Z,10.70
2018-08-02T07:46:57.818Z,10.30
2018-08-02T07:49:29.618Z,9.83
2018-08-02T07:52:01.218Z,9.47
2018-08-02T07:54:33.738Z,8.87
2018-08-02T07:57:04.906Z,10.03
2018-08-02T07:59:36.998Z,10.50
2018-08-02T08:02:09.098Z,11.73
2018-08-02T08:04:39.598Z,21.77
2018-08-02T08:07:11.993Z,10.57
2018-08-02T08:09:43.919Z,9.40
2018-08-02T08:12:15.473Z,10.33
2018-08-02T08:14:46.723Z,10.10
2018-08-02T08:17:18.554Z,10.20
2018-08-02T08:19:49.934Z,9.57
2018-08-02T08:22:21.854Z,8.87
2018-08-02T08:24:53.371Z,10.70
2018-08-02T08:27:25.391Z,9.50
2018-08-02T08:29:56.351Z,9.67
2018-08-02T08:32:28.211Z,14.67
2018-08-02T08:34:59.371Z,9.83
2018-08-02T08:37:30.684Z,9.17
2018-08-02T08:40:01.536Z,9.77
2018-08-02T08:42:33.591Z,10.00
2018-08-02T08:45:05.753Z,9.97
2018-08-02T08:47:37.252Z,14.77
2018-08-02T08:50:09.672Z,10.17
2018-08-02T08:52:41.093Z,10.50
2018-08-02T08:55:13.212Z,10.37
2018-08-02T08:57:45.372Z,9.30
2018-08-02T09:00:17.112Z,8.60
2018-08-02T09:02:49.149Z,8.50
2018-08-02T09:05:21.489Z,9.73
2018-08-02T09:07:53.112Z,8.53
2018-08-02T09:10:24.379Z,11.13
2018-08-02T09:12:55.709Z,11.93
2018-08-02T09:15:26.249Z,10.40
2018-08-02T09:17:57.846Z,9.50
2018-08-02T09:20:28.825Z,9.77
2018-08-02T09:23:00.464Z,10.70
2018-08-02T09:25:32.503Z,11.07
2018-08-02T09:28:04.943Z,9.37
2018-08-02T09:30:37.104Z,9.90
2018-08-02T09:33:09.012Z,9.93
2018-08-02T09:35:40.722Z,10.50
2018-08-02T09:38:12.942Z,9.90
2018-08-02T09:40:44.164Z,8.17
2018-08-02T09:43:15.844Z,7.87
2018-08-02T09:45:47.843Z,8.33
2018-08-02T09:48:19.047Z,7.67
2018-08-02T09:50:51.744Z,7.90
2018-08-02T09:53:23.531Z,7.90
2018-08-02T09:55:55.186Z,8.53
2018-08-02T09:58:27.237Z,7.73
2018-08-02T10:01:02.986Z,7.80
2018-08-02T10:03:34.437Z,7.80
2018-08-02T10:06:07.468Z,8.67
2018-08-02T10:08:39.602Z,8.30
2018-08-02T10:11:11.510Z,9.90
2018-08-02T10:13:42.964Z,17.40
2018-08-02T10:16:14.421Z,9.00
2018-08-02T10:18:46.242Z,8.27
2018-08-02T10:21:17.560Z,9.57
2018-08-02T10:23:49.862Z,9.00
2018-08-02T10:26:22.641Z,9.30
2018-08-02T10:28:53.956Z,9.60
2018-08-02T10:31:25.923Z,9.17
2018-08-02T10:33:57.880Z,9.30
2018-08-02T10:36:29.760Z,9.20
2018-08-02T10:39:01.041Z,8.37
2018-08-02T10:41:33.000Z,8.70
2018-08-02T10:44:04.188Z,9.17
2018-08-02T10:46:35.681Z,9.97
2018-08-02T10:49:06.940Z,9.53
2018-08-02T10:51:38.525Z,9.10
2018-08-02T10:54:10.542Z,10.07
2018-08-02T10:56:42.661Z,10.10
2018-08-02T10:59:14.420Z,10.33
2018-08-02T11:01:47.121Z,9.73
2018-08-02T11:04:19.843Z,10.00
2018-08-02T11:06:52.041Z,10.07
2018-08-02T11:09:24.572Z,10.03
2018-08-02T11:11:55.780Z,10.50
2018-08-02T11:14:27.980Z,11.10
2018-08-02T11:16:59.582Z,10.03
2018-08-02T11:19:32.300Z,11.10
2018-08-02T11:22:04.561Z,10.10
2018-08-02T11:24:36.601Z,10.10
2018-08-02T11:27:08.702Z,10.53
2018-08-02T11:29:40.600Z,11.37
2018-08-02T11:32:11.861Z,11.40
2018-08-02T11:34:43.640Z,10.60
2018-08-02T11:37:15.428Z,10.50
2018-08-02T11:39:47.608Z,11.67
2018-08-02T11:42:20.176Z,12.67
2018-08-02T11:44:51.646Z,13.27
2018-08-02T11:47:23.747Z,13.60
2018-08-02T11:49:55.486Z,12.10
2018-08-02T11:52:27.924Z,12.83
2018-08-02T11:54:59.363Z,11.70
2018-08-02T11:57:31.773Z,13.60
2018-08-02T12:00:04.784Z,13.70
2018-08-02T12:02:36.505Z,11.87
2018-08-02T12:05:09.343Z,12.77
2018-08-02T12:07:40.980Z,13.00
2018-08-02T12:10:12.264Z,12.27
2018-08-02T12:12:44.484Z,13.40
2018-08-02T12:15:16.904Z,14.40
2018-08-02T12:17:48.724Z,10.93
2018-08-02T12:20:21.198Z,12.93
2018-08-02T12:22:53.248Z,12.47
2018-08-02T12:25:24.645Z,11.53
2018-08-02T12:27:55.436Z,11.93
2018-08-02T12:30:26.876Z,11.60
2018-08-02T12:32:58.797Z,11.90
2018-08-02T12:35:31.396Z,12.20
2018-08-02T12:38:03.416Z,10.90
2018-08-02T12:40:35.751Z,12.73
2018-08-02T12:43:06.996Z,11.03
2018-08-02T12:45:39.191Z,12.67
2018-08-02T12:48:10.733Z,12.20
2018-08-02T12:50:43.603Z,12.07
2018-08-02T12:53:15.381Z,11.77
2018-08-02T12:55:47.456Z,11.90
2018-08-02T12:58:19.948Z,11.40
2018-08-02T13:00:52.078Z,12.23
2018-08-02T13:03:23.876Z,12.70
2018-08-02T13:05:55.468Z,13.03
2018-08-02T13:08:27.189Z,11.43
2018-08-02T13:10:59.165Z,11.80
2018-08-02T13:13:31.068Z,10.73
2018-08-02T13:16:02.969Z,10.40
2018-08-02T13:18:34.289Z,11.40
2018-08-02T13:21:06.044Z,10.40
2018-08-02T13:23:37.645Z,12.20
2018-08-02T13:26:09.338Z,10.77
2018-08-02T13:28:40.901Z,10.77
2018-08-02T13:31:12.182Z,11.00
2018-08-02T13:33:44.241Z,10.23
2018-08-02T13:36:16.217Z,10.90
2018-08-02T13:38:47.822Z,10.17
2018-08-02T13:41:19.221Z,9.97
2018-08-02T13:43:50.184Z,10.23
2018-08-02T13:46:22.430Z,9.60
2018-08-02T13:48:54.860Z,10.10
2018-08-02T13:51:26.777Z,11.10
2018-08-02T13:53:58.733Z,10.10
2018-08-02T13:56:30.143Z,9.77
2018-08-02T13:59:01.287Z,10.40
2018-08-02T14:01:33.131Z,10.13
2018-08-02T14:04:05.374Z,10.67
2018-08-02T14:06:37.834Z,10.87
2018-08-02T14:09:10.548Z,9.50
2018-08-02T14:11:41.467Z,9.50
2018-08-02T14:14:13.083Z,9.63
2018-08-02T14:16:44.638Z,10.37
2018-08-02T14:19:16.632Z,11.10
2018-08-02T14:21:48.881Z,9.90
2018-08-02T14:24:20.687Z,11.33
2018-08-02T14:26:52.731Z,9.60
2018-08-02T14:29:24.828Z,11.47
2018-08-02T14:31:56.127Z,12.17
2018-08-02T14:34:29.467Z,10.70
2018-08-02T14:37:00.989Z,10.40
2018-08-02T14:39:32.907Z,10.13
2018-08-02T14:42:04.647Z,9.97
2018-08-02T14:44:36.827Z,9.93
2018-08-02T14:47:08.533Z,10.87
2018-08-02T14:49:40.308Z,10.17
2018-08-02T14:52:13.267Z,10.83
2018-08-02T14:54:44.656Z,11.67
2018-08-02T14:57:16.009Z,10.63
2018-08-02T14:59:47.847Z,10.80
2018-08-02T15:02:18.607Z,10.13
2018-08-02T15:04:50.268Z,11.70
2018-08-02T15:07:22.328Z,10.60
2018-08-02T15:09:54.288Z,9.33
2018-08-02T15:12:25.467Z,10.07
2018-08-02T15:14:57.167Z,16.27
2018-08-02T15:17:27.428Z,9.93
2018-08-02T15:19:58.867Z,9.60
2018-08-02T15:22:30.267Z,10.53
2018-08-02T15:25:02.548Z,10.30
2018-08-02T15:27:34.793Z,10.43
2018-08-02T15:30:07.069Z,10.00
2018-08-02T15:32:40.050Z,9.57
2018-08-02T15:35:11.650Z,9.90
2018-08-02T15:37:43.933Z,10.17
2018-08-02T15:40:15.630Z,10.93
2018-08-02T15:42:48.434Z,10.00
2018-08-02T15:45:18.551Z,10.60
2018-08-02T15:47:50.149Z,11.27
2018-08-02T15:50:22.769Z,10.80
2018-08-02T15:52:54.949Z,11.03
2018-08-02T15:55:26.954Z,11.20
2018-08-02T15:57:59.189Z,10.00
2018-08-02T16:00:32.229Z,11.40
2018-08-02T16:03:04.096Z,11.60
2018-08-02T16:05:36.529Z,10.10
2018-08-02T16:08:08.269Z,9.90
2018-08-02T16:10:40.529Z,10.40
2018-08-02T16:13:12.334Z,10.53
2018-08-02T16:15:44.430Z,10.90
2018-08-02T16:18:16.169Z,11.23
2018-08-02T16:20:48.289Z,10.63
2018-08-02T16:23:20.790Z,10.87
2018-08-02T16:25:53.250Z,11.70
2018-08-02T16:28:25.089Z,11.47
2018-08-02T16:30:57.429Z,10.43
2018-08-02T16:33:29.929Z,11.27
2018-08-02T16:36:01.173Z,10.63
2018-08-02T16:38:32.909Z,27.80
2018-08-02T16:41:04.650Z,10.90
2018-08-02T16:43:36.752Z,11.33
2018-08-02T16:46:09.270Z,11.33
2018-08-02T16:48:40.032Z,10.70
2018-08-02T16:51:11.693Z,12.47
2018-08-02T16:53:44.129Z,15.80
2018-08-02T16:56:15.669Z,12.80
2018-08-02T16:58:47.969Z,14.77
2018-08-02T17:01:19.349Z,14.90
2018-08-02T17:03:50.589Z,17.37
2018-08-02T17:06:22.629Z,16.80
2018-08-02T17:08:54.509Z,16.50
2018-08-02T17:11:26.510Z,17.80
2018-08-02T17:13:58.249Z,17.57
2018-08-02T17:16:29.869Z,17.20
2018-08-02T17:19:01.613Z,17.37
2018-08-02T17:21:33.489Z,18.27
2018-08-02T17:24:05.590Z,19.43
2018-08-02T17:26:38.129Z,17.17
2018-08-02T17:29:09.629Z,19.83
2018-08-02T17:31:42.650Z,18.03
2018-08-02T17:34:14.408Z,18.83
2018-08-02T17:36:46.091Z,18.87
2018-08-02T17:39:18.989Z,19.63
2018-08-02T17:41:50.189Z,18.53
2018-08-02T17:44:21.809Z,18.13
2018-08-02T17:46:54.068Z,20.63
2018-08-02T17:49:26.555Z,18.30
2018-08-02T17:51:58.108Z,18.57
2018-08-02T17:54:30.388Z,20.10
2018-08-02T17:57:01.752Z,18.83
2018-08-02T17:59:34.448Z,19.70
2018-08-02T18:02:05.769Z,19.13
2018-08-02T18:04:37.808Z,19.50
2018-08-02T18:07:08.828Z,18.97
2018-08-02T18:09:41.129Z,20.07
2018-08-02T18:12:13.337Z,20.20
2018-08-02T18:14:44.909Z,18.60
2018-08-02T18:17:16.284Z,18.90
2018-08-02T18:19:47.910Z,19.03
2018-08-02T18:22:19.683Z,17.37
2018-08-02T18:24:51.977Z,18.60
2018-08-02T18:27:23.443Z,18.50
2018-08-02T18:29:55.844Z,18.60
2018-08-02T18:32:27.364Z,20.73
2018-08-02T18:34:59.303Z,19.10
2018-08-02T18:37:31.163Z,17.93
2018-08-02T18:40:04.365Z,17.57
2018-08-02T18:42:35.583Z,19.33
2018-08-02T18:45:08.585Z,17.80
2018-08-02T18:47:40.149Z,17.50
2018-08-02T18:50:12.651Z,17.60
2018-08-02T18:52:44.251Z,19.23
2018-08-02T18:55:16.921Z,16.60
2018-08-02T18:57:48.140Z,17.43
2018-08-02T19:00:20.001Z,18.47
2018-08-02T19:02:51.728Z,18.27
2018-08-02T19:05:24.298Z,17.90
2018-08-02T19:07:56.472Z,17.67
2018-08-02T19:10:28.027Z,17.33
2018-08-02T19:12:59.944Z,16.03
2018-08-02T19:15:32.129Z,17.20
2018-08-02T19:18:03.944Z,18.33
2018-08-02T19:20:35.943Z,16.83
2018-08-02T19:23:07.842Z,17.13
2018-08-02T19:25:39.216Z,17.23
2018-08-02T19:28:10.600Z,23.77
2018-08-02T19:30:43.174Z,19.23
2018-08-02T19:33:14.274Z,17.83
2018-08-02T19:35:47.056Z,20.90
2018-08-02T19:38:18.421Z,17.30
2018-08-02T19:40:51.180Z,20.77
2018-08-02T19:43:22.834Z,18.23
2018-08-02T19:45:54.827Z,18.00
2018-08-02T19:48:26.034Z,19.67
2018-08-02T19:50:57.655Z,19.37
2018-08-02T19:53:29.666Z,19.27
2018-08-02T19:56:01.330Z,18.10
2018-08-02T19:58:32.894Z,17.97
2018-08-02T20:01:04.878Z,19.00
2018-08-02T20:03:36.498Z,18.27
2018-08-02T20:06:09.238Z,17.63
2018-08-02T20:08:41.118Z,18.43
2018-08-02T20:11:13.296Z,18.30
2018-08-02T20:13:44.621Z,17.03
2018-08-02T20:16:17.840Z,15.67
2018-08-02T20:18:50.360Z,16.50
2018-08-02T20:21:22.222Z,16.40
2018-08-02T20:23:54.501Z,16.17
2018-08-02T20:26:26.467Z,17.10
2018-08-02T20:28:59.267Z,19.70
2018-08-02T20:31:30.948Z,21.40
2018-08-02T20:34:03.808Z,21.27
2018-08-02T20:36:34.667Z,19.87
2018-08-02T20:39:07.507Z,18.90
2018-08-02T20:41:40.009Z,20.10
2018-08-02T20:44:12.135Z,19.70
2018-08-02T20:46:43.936Z,18.93
2018-08-02T20:49:16.336Z,17.73
2018-08-02T20:51:47.709Z,18.87
2018-08-02T20:54:20.137Z,19.57
2018-08-02T20:56:51.937Z,19.27
2018-08-02T20:59:24.483Z,19.83
2018-08-02T21:01:57.000Z,19.00
2018-08-02T21:04:28.581Z,19.20
2018-08-02T21:07:00.122Z,20.07
2018-08-02T21:09:32.300Z,21.53
2018-08-02T21:12:03.836Z,20.60
2018-08-02T21:14:35.252Z,19.80
2018-08-02T21:17:08.227Z,21.10
2018-08-02T21:19:39.707Z,20.80
2018-08-02T21:22:11.947Z,19.70
2018-08-02T21:24:43.803Z,19.30
2018-08-02T21:27:16.005Z,20.27
2018-08-02T21:29:48.704Z,20.57
2018-08-02T21:32:19.823Z,18.23
2018-08-02T21:34:51.563Z,19.60
2018-08-02T21:37:23.983Z,20.13
2018-08-02T21:39:56.663Z,20.37
2018-08-02T21:42:27.863Z,20.93
2018-08-02T21:45:00.673Z,19.30
2018-08-02T21:47:32.668Z,20.83
2018-08-02T21:50:05.270Z,20.40
2018-08-02T21:52:38.108Z,20.53
2018-08-02T21:55:10.869Z,20.73
2018-08-02T21:57:42.828Z,20.10
2018-08-02T22:00:37.471Z,19.77
2018-08-02T22:03:09.789Z,20.17
2018-08-02T22:05:42.788Z,19.60
2018-08-02T22:08:15.028Z,20.40
2018-08-02T22:10:47.313Z,19.70
2018-08-02T22:13:23.689Z,18.70
2018-08-02T22:15:57.988Z,19.80
2018-08-02T22:18:30.229Z,19.50
2018-08-02T22:21:02.009Z,19.67
2018-08-02T22:23:34.169Z,18.77
2018-08-02T22:26:05.728Z,19.47
2018-08-02T22:28:37.809Z,19.40
2018-08-02T22:31:09.908Z,17.37
2018-08-02T22:33:42.089Z,17.77
2018-08-02T22:36:14.473Z,20.93
2018-08-02T22:38:46.449Z,20.03
2018-08-02T22:41:19.508Z,20.13
2018-08-02T22:43:51.552Z,20.30
2018-08-02T22:46:23.049Z,19.17
2018-08-02T22:48:56.069Z,19.53
2018-08-02T22:51:27.628Z,20.67
2018-08-02T22:53:59.433Z,19.97
2018-08-02T22:56:31.667Z,19.50
2018-08-02T22:59:03.569Z,19.30
2018-08-02T23:01:37.167Z,19.30
2018-08-02T23:04:09.908Z,21.20
2018-08-02T23:06:41.888Z,20.30
2018-08-02T23:09:13.888Z,19.53
2018-08-02T23:11:45.428Z,20.27
2018-08-02T23:14:16.987Z,21.20
2018-08-02T23:16:48.988Z,19.27
2018-08-02T23:19:20.669Z,20.47
2018-08-02T23:21:52.787Z,20.30
2018-08-02T23:24:24.021Z,21.33
2018-08-02T23:26:55.888Z,22.00
2018-08-02T23:29:27.827Z,19.17
2018-08-02T23:31:59.349Z,19.70
2018-08-02T23:34:31.428Z,20.90
2018-08-02T23:37:04.489Z,21.73
2018-08-02T23:39:36.787Z,20.70
2018-08-02T23:42:08.648Z,21.93
2018-08-02T23:44:40.134Z,21.40
2018-08-02T23:47:12.227Z,21.07
2018-08-02T23:49:43.527Z,22.37
2018-08-02T23:52:16.167Z,21.20
2018-08-02T23:54:47.168Z,21.57
2018-08-02T23:57:19.847Z,20.33
2018-08-02T23:59:52.548Z,19.93
